Time;durP1;ratioP1;P1;durP2;ratioP2;P2;SDS_P1;SDS_P2;PMS_P1;PMS_P2;Temp;Humidity;BMP_temperature;BMP_pressure;BME280_temperature;BME280_humidity;BME280_pressure;Samples;Min_cycle;Max_cycle;Signal;HPM_P1;HPM_P2
2023/09/15 00:07:25;;;;;;;4.45;2.50;;;;;;;20.72;69.88;101849.09;19443719;30;20057;-63
2023/09/15 00:17:27;;;;;;;5.78;2.95;;;;;;;20.69;69.67;101850.19;19441824;30;20057;-63
2023/09/15 00:27:30;;;;;;;3.40;2.42;;;;;;;20.66;69.41;101842.34;19440158;30;20059;-63
2023/09/15 00:37:32;;;;;;;3.58;2.10;;;;;;;20.66;69.38;101836.09;19432051;30;20061;-63
2023/09/15 00:47:34;;;;;;;3.90;2.30;;;;;;;20.65;69.19;101828.97;19437803;30;20435;-63
2023/09/15 00:57:39;;;;;;;4.85;2.20;;;;;;;20.64;68.99;101824.53;19437950;30;20096;-63
2023/09/15 01:07:41;;;;;;;3.30;2.20;;;;;;;20.61;68.71;101825.66;19438313;30;20073;-63
2023/09/15 01:17:52;;;;;;;2.28;1.65;;;;;;;20.60;68.61;101815.81;19442338;30;20042;-63
2023/09/15 01:28:17;;;;;;;2.45;1.63;;;;;;;20.59;68.44;101816.81;19437139;30;20509;-63
2023/09/15 01:38:19;;;;;;;1.92;1.42;;;;;;;20.56;68.12;101811.66;19439200;30;20063;-63
2023/09/15 01:48:22;;;;;;;3.08;1.30;;;;;;;20.55;68.00;101797.28;19435653;30;20065;-63
2023/09/15 01:58:24;;;;;;;1.65;1.10;;;;;;;20.54;67.83;101794.72;19419445;30;20057;-63
2023/09/15 02:08:26;;;;;;;2.75;1.02;;;;;;;20.52;67.70;101781.31;19432264;30;20053;-63
2023/09/15 02:18:29;;;;;;;1.30;1.20;;;;;;;20.52;67.42;101783.16;19447469;30;20049;-63
2023/09/15 02:28:33;;;;;;;1.30;1.00;;;;;;;20.49;67.52;101776.16;19449396;30;20057;-63
2023/09/15 02:38:35;;;;;;;1.50;1.00;;;;;;;20.48;67.16;101774.44;19439178;30;20061;-63
2023/09/15 02:48:37;;;;;;;2.03;0.90;;;;;;;20.45;66.53;101772.00;19446768;30;20057;-63
2023/09/15 02:58:39;;;;;;;1.23;0.98;;;;;;;20.44;66.24;101770.28;19460287;30;20447;-63
2023/09/15 03:08:47;;;;;;;1.30;1.10;;;;;;;20.41;65.95;101763.31;19459588;30;20426;-63
2023/09/15 03:18:49;;;;;;;1.13;0.80;;;;;;;20.40;65.72;101756.19;19444546;30;20061;-63
2023/09/15 03:28:52;;;;;;;1.42;0.93;;;;;;;20.36;65.71;101748.47;19458572;30;20116;-63
2023/09/15 03:38:57;;;;;;;1.30;0.80;;;;;;;20.37;65.53;101742.94;19445271;30;20065;-63
2023/09/15 03:48:59;;;;;;;1.00;0.77;;;;;;;20.38;65.69;101743.78;19457899;30;20048;-63
2023/09/15 03:59:03;;;;;;;1.42;0.88;;;;;;;20.35;65.23;101742.22;19455439;30;20061;-63
2023/09/15 04:09:10;;;;;;;1.48;0.80;;;;;;;20.35;65.25;101735.94;19441164;30;20483;-63
2023/09/15 04:19:12;;;;;;;1.10;0.80;;;;;;;20.34;65.14;101739.63;19456295;30;20088;-63
2023/09/15 04:29:14;;;;;;;1.25;0.80;;;;;;;20.32;65.20;101736.19;19452690;30;20058;-63
2023/09/15 04:39:16;;;;;;;0.90;0.70;;;;;;;20.31;65.24;101726.38;19461845;30;20057;-63
2023/09/15 04:49:20;;;;;;;1.33;0.90;;;;;;;20.31;65.21;101724.50;19469063;30;20060;-63
2023/09/15 04:59:21;;;;;;;1.27;0.60;;;;;;;20.29;64.96;101723.78;19453908;30;20152;-63
2023/09/15 05:09:26;;;;;;;2.70;0.73;;;;;;;20.27;64.87;101729.34;19453246;30;20500;-63
2023/09/15 05:19:28;;;;;;;1.98;0.90;;;;;;;20.24;64.75;101739.56;19452572;30;20127;-63
2023/09/15 05:29:30;;;;;;;1.10;0.80;;;;;;;20.24;64.71;101740.44;19451561;30;20093;-63
2023/09/15 05:39:32;;;;;;;0.80;0.70;;;;;;;20.24;64.48;101742.25;19451936;30;20140;-63
2023/09/15 05:49:34;;;;;;;0.70;0.60;;;;;;;20.22;64.46;101737.00;19450221;30;20503;-63
2023/09/15 05:59:36;;;;;;;0.68;0.68;;;;;;;20.22;64.43;101738.81;19451491;30;20194;-63
2023/09/15 06:09:38;;;;;;;1.52;0.60;;;;;;;20.21;64.53;101729.88;19449027;30;20578;-63
2023/09/15 06:19:40;;;;;;;1.00;0.73;;;;;;;20.23;64.26;101735.13;19426293;30;20070;-63
2023/09/15 06:29:43;;;;;;;1.08;0.75;;;;;;;20.28;64.28;101732.88;19444018;30;20065;-64
2023/09/15 06:39:45;;;;;;;1.80;0.93;;;;;;;20.34;64.36;101740.50;19426867;30;20057;-62
2023/09/15 06:49:47;;;;;;;2.33;0.80;;;;;;;20.40;64.64;101729.16;19439674;30;20061;-62
2023/09/15 06:59:49;;;;;;;1.70;1.08;;;;;;;20.46;64.80;101732.31;19440254;30;20128;-62
2023/09/15 07:09:51;;;;;;;1.58;0.90;;;;;;;20.57;65.07;101743.91;19441545;30;20068;-63
2023/09/15 07:19:53;;;;;;;1.23;0.93;;;;;;;20.68;65.09;101737.53;19438005;30;20080;-63
2023/09/15 07:29:54;;;;;;;1.15;1.05;;;;;;;20.83;65.26;101740.78;19420623;30;20061;-63
2023/09/15 07:39:56;;;;;;;1.33;0.80;;;;;;;20.98;65.42;101733.16;19421614;30;20816;-63
2023/09/15 07:49:58;;;;;;;1.50;0.80;;;;;;;21.09;65.88;101706.97;19436307;30;20054;-64
2023/09/15 08:00:00;;;;;;;2.03;1.10;;;;;;;21.24;66.14;101705.59;19432183;30;20065;-65
2023/09/15 08:10:03;;;;;;;2.28;1.00;;;;;;;21.36;66.56;101710.91;19428663;30;20151;-64
2023/09/15 08:20:05;;;;;;;3.37;1.07;;;;;;;21.45;67.11;101704.63;19428274;30;20403;-65
2023/09/15 08:30:08;;;;;;;1.48;0.90;;;;;;;21.54;67.30;101698.34;19419987;30;20830;-65
2023/09/15 08:40:12;;;;;;;3.33;1.10;;;;;;;21.62;67.24;101696.78;19421617;30;20065;-65
2023/09/15 08:50:14;;;;;;;1.65;0.70;;;;;;;21.70;67.72;101686.16;19418664;30;20136;-64
2023/09/15 09:00:16;;;;;;;2.58;0.70;;;;;;;21.75;67.79;101683.00;19432870;30;20065;-63
2023/09/15 09:10:25;;;;;;;1.38;0.90;;;;;;;21.77;68.18;101678.28;19435974;30;20537;-63
2023/09/15 09:20:28;;;;;;;2.42;1.00;;;;;;;21.83;68.25;101673.16;19428080;30;20541;-62
2023/09/15 09:30:30;;;;;;;1.30;0.77;;;;;;;21.84;68.38;101669.44;19434744;30;20156;-62
2023/09/15 09:40:33;;;;;;;1.40;0.80;;;;;;;21.87;68.46;101661.03;19427004;30;20072;-64
2023/09/15 09:50:35;;;;;;;1.98;0.90;;;;;;;21.90;68.34;101646.34;19455698;30;20542;-63
2023/09/15 10:00:37;;;;;;;1.45;0.80;;;;;;;21.95;68.76;101645.88;19433029;30;20061;-64
2023/09/15 10:10:43;;;;;;;2.45;1.10;;;;;;;21.98;68.99;101638.34;19437152;30;20049;-64
2023/09/15 10:20:51;;;;;;;1.10;0.88;;;;;;;22.02;68.91;101647.00;19441316;30;20053;-64
2023/09/15 10:30:58;;;;;;;1.50;0.77;;;;;;;22.04;69.02;101623.31;19443351;30;20045;-64
2023/09/15 10:41:04;;;;;;;1.63;1.00;;;;;;;22.05;68.83;101610.63;19438141;30;20065;-64
2023/09/15 10:51:07;;;;;;;2.42;1.27;;;;;;;22.08;68.91;101600.34;19436798;30;20049;-63
2023/09/15 11:01:10;;;;;;;1.13;0.90;;;;;;;22.08;69.08;101600.34;19435170;30;20459;-64
2023/09/15 11:11:12;;;;;;;2.83;1.17;;;;;;;22.09;68.79;101585.78;19448602;30;20096;-64
2023/09/15 11:21:15;;;;;;;1.77;1.10;;;;;;;22.10;68.68;101579.38;19441936;30;20065;-64
2023/09/15 11:31:17;;;;;;;1.75;1.10;;;;;;;22.11;68.72;101577.50;19438190;30;20590;-65
2023/09/15 11:41:28;;;;;;;1.50;1.00;;;;;;;22.12;68.50;101554.81;19419443;30;20083;-64
2023/09/15 11:51:30;;;;;;;2.08;1.13;;;;;;;22.11;68.56;101545.84;19428076;30;20486;-65
2023/09/15 12:01:35;;;;;;;1.07;0.90;;;;;;;22.09;68.14;101528.00;19453791;30;20058;-65
2023/09/15 12:11:40;;;;;;;1.95;0.90;;;;;;;22.11;68.58;101531.41;19438989;30;20061;-64
2023/09/15 12:21:55;;;;;;;1.67;0.98;;;;;;;22.11;68.26;101516.00;19439562;30;20147;-64
2023/09/15 12:31:57;;;;;;;1.70;1.05;;;;;;;22.11;68.25;101502.44;19441286;30;20057;-64
2023/09/15 12:42:00;;;;;;;1.90;1.17;;;;;;;22.12;68.33;101503.28;19451205;30;20057;-64
2023/09/15 12:52:05;;;;;;;1.88;1.15;;;;;;;22.12;68.70;101493.31;19436446;30;20127;-64
2023/09/15 13:02:07;;;;;;;2.45;1.20;;;;;;;22.11;68.53;101491.59;19450852;30;20061;-64
2023/09/15 13:12:09;;;;;;;1.65;1.02;;;;;;;22.09;68.71;101496.28;19439208;30;20066;-63
2023/09/15 13:22:11;;;;;;;2.15;1.23;;;;;;;22.06;69.31;101483.03;19431649;30;20515;-63
2023/09/15 13:32:13;;;;;;;1.27;1.10;;;;;;;22.03;69.70;101477.91;19433972;30;20056;-63
2023/09/15 13:42:31;;;;;;;2.42;1.20;;;;;;;22.01;69.97;101474.50;19428829;30;20049;-64
2023/09/15 13:52:33;;;;;;;1.40;1.00;;;;;;;21.98;70.62;101464.81;19426123;30;20049;-64
2023/09/15 14:02:36;;;;;;;1.42;1.13;;;;;;;21.95;71.06;101454.28;19431496;30;20061;-63
2023/09/15 14:12:37;;;;;;;2.58;1.40;;;;;;;21.94;71.22;101441.75;19442942;30;20128;-64
2023/09/15 14:22:39;;;;;;;1.92;1.38;;;;;;;21.95;71.55;101429.03;19437175;30;20422;-63
2023/09/15 14:32:41;;;;;;;1.70;1.17;;;;;;;21.95;71.67;101415.47;19429506;30;20056;-63
2023/09/15 14:42:43;;;;;;;2.60;1.65;;;;;;;21.95;71.65;101410.03;19430412;30;20061;-64
2023/09/15 14:52:45;;;;;;;2.47;1.48;;;;;;;21.91;71.65;101392.38;19436182;30;20057;-63
2023/09/15 15:02:47;;;;;;;1.50;1.25;;;;;;;21.87;71.74;101392.69;19439277;30;20151;-64
2023/09/15 15:12:50;;;;;;;1.83;1.45;;;;;;;21.86;71.60;101380.13;19446395;30;20415;-64
2023/09/15 15:22:51;;;;;;;2.63;1.40;;;;;;;21.84;71.68;101367.72;19445271;30;20576;-64
2023/09/15 15:32:53;;;;;;;2.20;1.50;;;;;;;21.81;71.56;101385.16;19445363;30;20119;-64
2023/09/15 15:42:56;;;;;;;3.10;1.40;;;;;;;21.77;71.38;101380.19;19444609;30;20065;-64
2023/09/15 15:52:57;;;;;;;2.40;1.60;;;;;;;21.75;71.38;101377.63;19444518;30;20120;-64
2023/09/15 16:03:00;;;;;;;2.03;1.63;;;;;;;21.72;71.22;101372.53;19443944;30;20065;-64
2023/09/15 16:13:03;;;;;;;2.13;1.58;;;;;;;21.70;71.14;101369.94;19454745;30;20057;-64
2023/09/15 16:23:08;;;;;;;2.17;1.60;;;;;;;21.68;70.98;101371.94;19457754;30;20112;-64
2023/09/15 16:33:10;;;;;;;2.45;1.45;;;;;;;21.66;70.95;101362.28;19457262;30;20057;-64
2023/09/15 16:43:12;;;;;;;2.33;1.15;;;;;;;21.63;71.17;101362.53;19456267;30;20471;-64
2023/09/15 16:53:14;;;;;;;2.80;1.40;;;;;;;21.59;71.33;101379.09;19456124;30;20065;-64
2023/09/15 17:03:16;;;;;;;2.15;1.27;;;;;;;21.55;71.53;101364.13;19455096;30;20066;-64
2023/09/15 17:13:18;;;;;;;1.95;1.20;;;;;;;21.52;71.80;101372.56;19454200;30;20518;-64
2023/09/15 17:23:20;;;;;;;1.95;1.30;;;;;;;21.50;72.22;101369.16;19453484;30;20515;-64
2023/09/15 17:33:21;;;;;;;1.65;1.27;;;;;;;21.49;72.51;101361.19;19453406;30;20153;-64
2023/09/15 17:43:24;;;;;;;2.53;1.42;;;;;;;21.44;72.68;101354.38;19453093;30;20073;-64
2023/09/15 17:53:26;;;;;;;1.60;1.27;;;;;;;21.42;73.18;101360.91;19451978;30;20503;-64
2023/09/15 18:03:27;;;;;;;1.52;1.25;;;;;;;21.39;73.30;101356.63;19450994;30;20511;-64
2023/09/15 18:13:29;;;;;;;1.95;1.20;;;;;;;21.38;73.47;101367.63;19449850;30;20062;-64
2023/09/15 18:23:32;;;;;;;1.88;1.42;;;;;;;21.35;73.71;101359.81;19449627;30;20077;-64
2023/09/15 18:33:36;;;;;;;1.60;1.50;;;;;;;21.28;73.83;101357.69;19447047;30;20070;-63
2023/09/15 18:43:38;;;;;;;1.95;1.42;;;;;;;21.26;74.09;101365.13;19441202;30;20061;-63
2023/09/15 18:53:39;;;;;;;3.05;1.50;;;;;;;21.22;74.36;101363.72;19435086;30;20053;-63
2023/09/15 19:03:41;;;;;;;1.98;1.35;;;;;;;21.20;74.64;101370.25;19433435;30;21810;-63
2023/09/15 19:13:43;;;;;;;2.88;1.55;;;;;;;21.19;74.59;101371.25;19432750;30;20065;-63
2023/09/15 19:23:45;;;;;;;1.42;1.20;;;;;;;21.15;74.54;101365.28;19442167;30;20061;-63
2023/09/15 19:33:47;;;;;;;3.53;1.77;;;;;;;21.13;74.48;101359.16;19444215;30;20053;-63
2023/09/15 19:43:49;;;;;;;1.67;1.38;;;;;;;21.11;74.39;101356.59;19444290;30;20478;-63
2023/09/15 19:53:50;;;;;;;2.97;1.70;;;;;;;21.01;74.39;101353.91;19443576;30;20061;-63
2023/09/15 20:03:52;;;;;;;2.47;1.50;;;;;;;21.08;74.26;101367.72;19442797;30;20070;-63
2023/09/15 20:13:55;;;;;;;2.47;1.50;;;;;;;21.00;74.14;101346.78;19442933;30;20100;-63
2023/09/15 20:23:57;;;;;;;1.95;1.70;;;;;;;21.04;74.18;101358.19;19442121;30;20100;-63
2023/09/15 20:34:03;;;;;;;2.10;1.27;;;;;;;21.02;73.96;101343.97;19442380;30;20069;-63
2023/09/15 20:44:05;;;;;;;2.53;1.50;;;;;;;21.03;74.02;101339.38;19455906;30;20069;-63
2023/09/15 20:54:07;;;;;;;2.05;1.60;;;;;;;21.01;73.88;101326.84;19445806;30;20123;-63
2023/09/15 21:04:09;;;;;;;1.65;1.30;;;;;;;21.00;74.03;101322.44;19455339;30;20112;-63
2023/09/15 21:14:11;;;;;;;1.45;1.27;;;;;;;20.98;73.94;101310.91;19455280;30;20084;-63
2023/09/15 21:24:13;;;;;;;1.40;1.30;;;;;;;20.97;73.94;101309.19;19453427;30;20145;-63
2023/09/15 21:34:15;;;;;;;1.67;1.40;;;;;;;20.95;73.97;101310.34;19453879;30;20069;-63
2023/09/15 21:44:17;;;;;;;2.10;1.50;;;;;;;20.93;73.98;101298.81;19453106;30;20069;-63
2023/09/15 21:54:18;;;;;;;2.13;1.48;;;;;;;20.91;73.99;101308.91;19452106;30;20119;-63
2023/09/15 22:04:20;;;;;;;1.95;1.27;;;;;;;20.90;74.26;101313.50;19451942;30;20057;-63
2023/09/15 22:14:23;;;;;;;1.80;1.40;;;;;;;20.88;74.05;101318.19;19450914;30;20061;-63
2023/09/15 22:24:25;;;;;;;1.98;1.40;;;;;;;20.87;74.07;101313.78;19449940;30;20058;-63
2023/09/15 22:34:27;;;;;;;1.85;1.30;;;;;;;20.85;74.04;101305.81;19449769;30;20152;-63
2023/09/15 22:44:29;;;;;;;2.40;1.63;;;;;;;20.83;73.93;101312.38;19448709;30;20530;-63
2023/09/15 22:54:32;;;;;;;2.17;1.70;;;;;;;20.81;73.87;101303.56;19447840;30;20056;-63
2023/09/15 23:04:34;;;;;;;3.70;1.95;;;;;;;20.80;73.86;101296.44;19448166;30;20140;-63
2023/09/15 23:14:36;;;;;;;2.08;1.50;;;;;;;20.78;73.80;101287.59;19446333;30;20061;-63
2023/09/15 23:24:38;;;;;;;2.00;1.60;;;;;;;20.76;73.67;101279.59;19446533;30;20463;-63
2023/09/15 23:34:40;;;;;;;2.25;1.45;;;;;;;20.76;73.56;101276.03;19441069;30;20419;-63
2023/09/15 23:44:42;;;;;;;1.92;1.42;;;;;;;20.71;73.31;101271.91;19442111;30;20515;-63
2023/09/15 23:54:44;;;;;;;2.00;1.58;;;;;;;20.70;73.17;101263.94;19440255;30;20061;-63
